createdAt,value
2022-10-25T00:02:20.085Z,1.85
2022-10-25T00:04:47.711Z,2.53
2022-10-25T00:07:14.986Z,2.95
2022-10-25T00:09:42.203Z,1.10
2022-10-25T00:12:08.849Z,1.35
2022-10-25T00:14:35.751Z,1.17
2022-10-25T00:17:02.772Z,2.17
2022-10-25T00:19:29.767Z,2.70
2022-10-25T00:21:56.335Z,3.35
2022-10-25T00:24:23.043Z,3.75
2022-10-25T00:26:49.572Z,1.38
2022-10-25T00:29:17.428Z,1.17
2022-10-25T00:31:44.107Z,1.40
2022-10-25T00:34:10.632Z,2.50
2022-10-25T00:36:37.234Z,1.63
2022-10-25T00:39:03.869Z,1.42
2022-10-25T00:41:32.565Z,2.42
2022-10-25T00:44:36.368Z,1.47
2022-10-25T00:47:10.805Z,1.33
2022-10-25T00:49:37.619Z,1.83
2022-10-25T00:52:07.536Z,1.75
2022-10-25T00:54:42.866Z,1.40
2022-10-25T00:57:15.958Z,1.38
2022-10-25T00:59:45.619Z,2.33
2022-10-25T01:02:13.204Z,0.93
2022-10-25T01:04:40.805Z,2.35
2022-10-25T01:07:07.417Z,2.08
2022-10-25T01:09:36.531Z,1.45
2022-10-25T01:14:32.898Z,1.52
2022-10-25T01:17:38.794Z,1.15
2022-10-25T01:20:33.013Z,0.90
2022-10-25T01:23:06.691Z,1.90
2022-10-25T01:26:04.687Z,1.77
2022-10-25T01:28:38.217Z,1.20
2022-10-25T01:31:30.454Z,1.02
2022-10-25T01:34:11.068Z,1.58
2022-10-25T01:37:09.892Z,1.67
2022-10-25T01:39:42.522Z,2.25
2022-10-25T01:42:14.537Z,1.30
2022-10-25T01:45:08.819Z,1.92
2022-10-25T01:47:44.855Z,1.92
2022-10-25T01:50:17.943Z,1.08
2022-10-25T01:52:44.625Z,1.25
2022-10-25T01:55:14.043Z,1.42
2022-10-25T02:00:12.377Z,0.68
2022-10-25T02:03:11.371Z,1.88
2022-10-25T02:05:56.321Z,1.13
2022-10-25T02:08:37.539Z,0.88
2022-10-25T02:11:27.298Z,0.82
2022-10-25T02:14:19.801Z,3.75
2022-10-25T02:17:11.631Z,2.33
2022-10-25T02:19:49.652Z,0.77
2022-10-25T02:22:19.581Z,1.08
2022-10-25T02:24:49.751Z,2.15
2022-10-25T02:27:19.075Z,1.77
2022-10-25T02:32:13.659Z,1.00
2022-10-25T02:34:41.109Z,1.25
2022-10-25T02:37:07.980Z,1.73
2022-10-25T02:39:35.644Z,0.75
2022-10-25T02:42:02.649Z,1.15
2022-10-25T02:44:29.477Z,1.40
2022-10-25T02:46:56.092Z,1.70
2022-10-25T02:49:22.730Z,0.75
2022-10-25T02:51:49.512Z,1.05
2022-10-25T02:54:16.294Z,1.70
2022-10-25T02:56:42.944Z,2.38
2022-10-25T02:59:12.136Z,0.60
2022-10-25T03:04:05.547Z,2.50
2022-10-25T03:06:32.699Z,0.88
2022-10-25T03:08:59.436Z,1.08
2022-10-25T03:11:26.156Z,1.58
2022-10-25T03:13:52.991Z,0.80
2022-10-25T03:16:19.791Z,2.17
2022-10-25T03:18:46.578Z,1.05
2022-10-25T03:21:13.272Z,1.55
2022-10-25T03:23:39.826Z,1.15
2022-10-25T03:26:06.398Z,0.85
2022-10-25T03:28:33.020Z,1.52
2022-10-25T03:31:00.251Z,1.75
2022-10-25T03:33:27.827Z,1.77
2022-10-25T03:35:55.852Z,1.50
2022-10-25T03:38:23.034Z,1.73
2022-10-25T03:40:49.891Z,1.05
2022-10-25T03:43:16.621Z,0.75
2022-10-25T03:45:43.290Z,2.38
2022-10-25T03:48:09.959Z,1.15
2022-10-25T03:50:36.908Z,1.13
2022-10-25T03:53:04.836Z,1.08
2022-10-25T03:55:32.324Z,2.90
2022-10-25T03:57:59.281Z,2.25
2022-10-25T04:00:26.522Z,1.58
2022-10-25T04:03:02.526Z,1.23
2022-10-25T04:05:30.634Z,1.65
2022-10-25T04:07:57.473Z,1.25
2022-10-25T04:10:25.362Z,1.13
2022-10-25T04:12:53.894Z,1.02
2022-10-25T04:15:21.615Z,1.83
2022-10-25T04:17:52.363Z,0.98
2022-10-25T04:20:19.953Z,1.80
2022-10-25T04:22:53.282Z,2.15
2022-10-25T04:25:20.032Z,1.00
2022-10-25T04:27:47.021Z,1.13
2022-10-25T04:30:14.054Z,0.85
2022-10-25T04:32:40.821Z,1.27
2022-10-25T04:35:08.073Z,2.17
2022-10-25T04:37:37.294Z,1.48
2022-10-25T04:40:05.012Z,1.30
2022-10-25T04:42:36.268Z,1.85
2022-10-25T04:45:03.214Z,1.05
2022-10-25T04:47:51.347Z,3.42
2022-10-25T04:50:18.157Z,2.72
2022-10-25T04:52:44.734Z,2.28
2022-10-25T04:55:11.625Z,1.33
2022-10-25T04:57:38.524Z,1.33
2022-10-25T05:00:05.432Z,1.05
2022-10-25T05:02:32.141Z,2.53
2022-10-25T05:05:01.529Z,3.92
2022-10-25T05:07:28.114Z,1.63
2022-10-25T05:09:54.874Z,1.33
2022-10-25T05:12:23.141Z,4.30
2022-10-25T05:14:49.729Z,2.30
2022-10-25T05:17:16.414Z,5.78
2022-10-25T05:19:43.165Z,13.60
2022-10-25T05:22:09.913Z,28.33
2022-10-25T05:24:36.531Z,62.85
2022-10-25T05:27:04.419Z,89.15
2022-10-25T05:29:31.095Z,153.55
2022-10-25T05:31:57.865Z,222.57
2022-10-25T05:34:24.704Z,208.13
2022-10-25T05:36:51.845Z,373.92
2022-10-25T05:39:18.337Z,449.67
2022-10-25T05:41:45.031Z,646.80
2022-10-25T05:44:11.607Z,683.70
2022-10-25T05:46:38.163Z,840.55
2022-10-25T05:49:23.363Z,960.38
2022-10-25T05:51:49.935Z,1015.58
2022-10-25T05:54:16.719Z,1198.68
2022-10-25T05:56:43.651Z,1324.57
2022-10-25T05:59:12.964Z,1404.00
2022-10-25T06:04:08.880Z,1999.90
2022-10-25T06:06:37.716Z,1999.90
2022-10-25T06:09:05.135Z,1999.90
2022-10-25T06:11:32.144Z,1999.90
2022-10-25T06:13:58.855Z,1999.90
2022-10-25T06:16:25.467Z,1999.90
2022-10-25T06:18:53.179Z,1947.78
2022-10-25T06:21:22.532Z,1860.13
2022-10-25T06:23:49.491Z,1829.15
2022-10-25T06:26:19.157Z,1693.53
2022-10-25T06:28:46.278Z,1472.68
2022-10-25T06:31:15.662Z,1298.88
2022-10-25T06:33:43.269Z,1226.28
2022-10-25T06:36:15.025Z,1075.57
2022-10-25T06:38:42.265Z,1047.05
2022-10-25T06:41:13.878Z,948.83
2022-10-25T06:43:40.475Z,831.72
2022-10-25T06:46:17.694Z,795.38
2022-10-25T06:48:44.241Z,723.63
2022-10-25T06:51:10.941Z,659.03
2022-10-25T06:53:38.396Z,589.20
2022-10-25T06:56:14.225Z,518.45
2022-10-25T06:58:41.963Z,478.40
2022-10-25T07:01:13.947Z,456.70
2022-10-25T07:03:41.385Z,409.73
2022-10-25T07:06:10.933Z,381.50
2022-10-25T07:08:39.404Z,351.02
2022-10-25T07:11:07.446Z,334.97
2022-10-25T07:13:34.700Z,295.23
2022-10-25T07:16:06.406Z,250.27
2022-10-25T07:18:34.138Z,224.57
2022-10-25T07:21:12.365Z,172.55
2022-10-25T07:23:42.634Z,167.60
2022-10-25T07:26:10.848Z,161.25
2022-10-25T07:28:37.549Z,154.25
2022-10-25T07:31:04.244Z,138.40
2022-10-25T07:33:31.890Z,127.55
2022-10-25T07:36:09.575Z,138.05
2022-10-25T07:38:37.466Z,137.47
2022-10-25T07:41:04.227Z,136.00
2022-10-25T07:43:30.956Z,127.28
2022-10-25T07:45:57.794Z,127.53
2022-10-25T07:48:24.526Z,127.97
2022-10-25T07:50:51.306Z,117.65
2022-10-25T07:53:18.659Z,118.63
2022-10-25T07:56:18.827Z,113.38
2022-10-25T07:58:49.138Z,107.53
2022-10-25T08:01:28.537Z,104.85
2022-10-25T08:03:55.957Z,96.63
2022-10-25T08:06:24.433Z,98.28
2022-10-25T08:08:51.188Z,103.10
2022-10-25T08:11:18.139Z,90.32
2022-10-25T08:13:47.514Z,86.45
2022-10-25T08:16:14.230Z,90.15
2022-10-25T08:18:43.022Z,83.63
2022-10-25T08:21:09.664Z,77.30
2022-10-25T08:23:36.255Z,77.13
2022-10-25T08:26:03.467Z,71.32
2022-10-25T08:28:31.396Z,64.20
2022-10-25T08:30:59.065Z,72.82
2022-10-25T08:33:25.980Z,66.68
2022-10-25T08:35:52.678Z,64.68
2022-10-25T08:38:19.434Z,59.58
2022-10-25T08:40:51.574Z,55.88
2022-10-25T08:43:50.345Z,55.65
2022-10-25T08:46:32.073Z,56.50
2022-10-25T08:49:38.442Z,52.50
2022-10-25T08:52:17.381Z,48.92
2022-10-25T08:54:45.265Z,46.03
2022-10-25T08:57:24.613Z,47.47
2022-10-25T08:59:55.306Z,43.53
2022-10-25T09:02:25.072Z,40.67
2022-10-25T09:04:51.974Z,48.60
2022-10-25T09:07:43.192Z,42.25
2022-10-25T09:10:27.567Z,38.95
2022-10-25T09:13:01.617Z,37.92
2022-10-25T09:15:47.904Z,37.38
2022-10-25T09:18:17.206Z,33.40
2022-10-25T09:23:28.999Z,34.00
2022-10-25T09:26:16.756Z,33.33
2022-10-25T09:29:09.835Z,27.75
2022-10-25T09:31:41.452Z,28.08
2022-10-25T09:34:11.027Z,30.73
2022-10-25T09:36:49.073Z,27.15
2022-10-25T09:39:37.235Z,28.17
2022-10-25T09:42:07.619Z,23.50
2022-10-25T09:44:54.719Z,23.25
2022-10-25T09:47:31.589Z,25.30
2022-10-25T09:50:02.699Z,19.50
2022-10-25T09:52:43.862Z,22.33
2022-10-25T09:55:34.623Z,24.88
2022-10-25T09:58:01.990Z,22.27
2022-10-25T10:00:29.383Z,18.50
2022-10-25T10:02:56.471Z,21.25
2022-10-25T10:05:23.239Z,22.38
2022-10-25T10:07:50.870Z,18.83
2022-10-25T10:10:22.386Z,18.55
2022-10-25T10:13:12.152Z,19.17
2022-10-25T10:16:01.192Z,20.85
2022-10-25T10:21:12.012Z,15.45
2022-10-25T10:23:41.579Z,16.70
2022-10-25T10:26:26.127Z,14.68
2022-10-25T10:29:07.892Z,13.63
2022-10-25T10:31:42.493Z,16.40
2022-10-25T10:34:30.606Z,15.75
2022-10-25T10:37:05.114Z,14.30
2022-10-25T10:39:32.246Z,15.32
2022-10-25T10:42:16.926Z,18.02
2022-10-25T10:45:09.103Z,18.15
2022-10-25T10:47:51.279Z,11.82
2022-10-25T10:50:21.191Z,13.20
2022-10-25T10:52:56.540Z,11.40
2022-10-25T10:55:32.991Z,13.47
2022-10-25T10:58:06.397Z,12.75
2022-10-25T11:00:34.739Z,11.57
2022-10-25T11:03:01.621Z,12.13
2022-10-25T11:05:28.311Z,9.73
2022-10-25T11:08:00.920Z,11.52
2022-10-25T11:10:30.889Z,11.50
2022-10-25T11:13:08.796Z,10.57
2022-10-25T11:15:40.892Z,10.43
2022-10-25T11:18:08.849Z,10.52
2022-10-25T11:20:58.115Z,9.77
2022-10-25T11:26:15.880Z,9.17
2022-10-25T11:29:17.055Z,9.77
2022-10-25T11:31:57.261Z,9.68
2022-10-25T11:34:34.899Z,7.20
2022-10-25T11:37:31.561Z,9.27
2022-10-25T11:40:17.922Z,8.00
2022-10-25T11:43:20.113Z,8.25
2022-10-25T11:45:51.400Z,8.95
2022-10-25T11:48:59.828Z,7.32
2022-10-25T11:52:16.750Z,6.25
2022-10-25T11:54:49.730Z,9.18
2022-10-25T11:57:27.851Z,6.97
2022-10-25T12:00:19.963Z,6.07
2022-10-25T12:03:23.868Z,6.95
2022-10-25T12:06:00.919Z,5.97
2022-10-25T12:08:34.088Z,6.15
2022-10-25T12:11:16.417Z,6.90
2022-10-25T12:13:51.117Z,8.80
2022-10-25T12:16:20.059Z,6.40
2022-10-25T12:19:06.435Z,6.47
2022-10-25T12:21:42.889Z,6.85
2022-10-25T12:24:20.002Z,8.23
2022-10-25T12:26:49.250Z,7.85
2022-10-25T12:29:33.786Z,6.78
2022-10-25T12:32:03.206Z,5.65
2022-10-25T12:34:46.868Z,6.03
2022-10-25T12:37:56.471Z,6.03
2022-10-25T12:40:28.731Z,6.00
2022-10-25T12:43:16.601Z,4.93
2022-10-25T12:45:58.263Z,3.72
2022-10-25T12:48:47.397Z,5.85
2022-10-25T12:51:48.037Z,5.38
2022-10-25T12:54:35.238Z,4.07
2022-10-25T12:57:27.608Z,3.67
2022-10-25T13:03:19.422Z,4.68
2022-10-25T13:06:17.076Z,4.57
2022-10-25T13:08:44.685Z,3.88
2022-10-25T13:11:12.187Z,4.95
2022-10-25T13:13:54.129Z,4.05
2022-10-25T13:16:29.330Z,4.00
2022-10-25T13:19:35.989Z,3.40
2022-10-25T13:22:37.854Z,4.05
2022-10-25T13:25:08.378Z,4.80
2022-10-25T13:27:36.190Z,3.97
2022-10-25T13:30:02.929Z,3.70
2022-10-25T13:32:33.765Z,3.97
2022-10-25T13:35:02.257Z,3.63
2022-10-25T13:37:31.598Z,3.07
2022-10-25T13:40:04.540Z,3.85
2022-10-25T13:42:38.250Z,4.32
2022-10-25T13:45:38.399Z,5.13
2022-10-25T13:48:13.565Z,3.42
2022-10-25T13:50:55.579Z,3.88
2022-10-25T13:53:42.367Z,4.38
2022-10-25T13:56:18.013Z,2.33
2022-10-25T13:58:56.375Z,3.72
2022-10-25T14:01:24.872Z,2.75
2022-10-25T14:04:01.654Z,2.90
2022-10-25T14:06:41.681Z,2.70
2022-10-25T14:09:36.650Z,3.13
2022-10-25T14:12:06.538Z,3.80
2022-10-25T14:14:47.414Z,3.72
2022-10-25T14:17:34.865Z,2.67
2022-10-25T14:20:07.367Z,3.08
2022-10-25T14:22:41.529Z,3.17
2022-10-25T14:25:36.221Z,3.45
2022-10-25T14:28:05.739Z,3.00
2022-10-25T14:30:55.565Z,4.93
2022-10-25T14:33:25.066Z,4.00
2022-10-25T14:36:13.607Z,3.72
2022-10-25T14:42:02.214Z,2.72
2022-10-25T14:44:31.770Z,3.03
2022-10-25T14:57:47.693Z,3.38
2022-10-25T15:00:19.946Z,2.70
2022-10-25T15:05:28.675Z,2.22
2022-10-25T15:07:57.639Z,3.05
2022-10-25T15:10:30.450Z,1.98
2022-10-25T15:13:03.843Z,1.75
2022-10-25T15:15:40.548Z,2.20
2022-10-25T15:18:29.019Z,2.00
2022-10-25T15:21:05.153Z,1.40
2022-10-25T15:23:32.253Z,1.55
2022-10-25T15:25:59.645Z,3.00
2022-10-25T15:28:46.982Z,4.35
2022-10-25T15:31:16.148Z,2.55
2022-10-25T15:33:45.607Z,2.30
2022-10-25T15:36:21.684Z,3.35
2022-10-25T15:39:07.243Z,1.30
2022-10-25T15:41:35.369Z,2.72
2022-10-25T15:44:02.049Z,1.58
2022-10-25T15:46:31.476Z,1.55
2022-10-25T15:51:30.200Z,2.67
2022-10-25T15:53:57.861Z,1.30
2022-10-25T15:56:24.637Z,2.63
2022-10-25T15:58:51.307Z,1.67
2022-10-25T16:01:18.572Z,2.05
2022-10-25T16:03:45.373Z,2.25
2022-10-25T16:06:14.212Z,1.80
2022-10-25T16:08:42.071Z,1.50
2022-10-25T16:11:20.214Z,1.98
2022-10-25T16:13:52.627Z,2.00
2022-10-25T16:16:39.461Z,2.22
2022-10-25T16:19:13.827Z,1.40
2022-10-25T16:21:40.534Z,2.63
2022-10-25T16:24:07.148Z,1.83
2022-10-25T16:26:40.961Z,1.80
2022-10-25T16:29:14.084Z,1.77
2022-10-25T16:31:40.750Z,1.55
2022-10-25T16:34:07.305Z,1.95
2022-10-25T16:36:33.820Z,1.20
2022-10-25T16:39:00.834Z,2.33
2022-10-25T16:41:31.668Z,0.85
2022-10-25T16:43:58.689Z,2.10
2022-10-25T16:46:26.123Z,3.00
2022-10-25T16:48:53.565Z,2.05
2022-10-25T16:51:22.038Z,2.10
2022-10-25T16:53:48.905Z,2.60
2022-10-25T16:56:16.927Z,1.25
2022-10-25T16:58:43.677Z,1.70
2022-10-25T17:01:34.444Z,1.33
2022-10-25T17:04:02.981Z,1.10
2022-10-25T17:06:40.830Z,1.48
2022-10-25T17:09:07.798Z,5.05
2022-10-25T17:11:34.397Z,1.48
2022-10-25T17:14:01.012Z,1.88
2022-10-25T17:16:27.549Z,1.90
2022-10-25T17:18:54.124Z,2.05
2022-10-25T17:21:20.690Z,4.28
2022-10-25T17:23:47.435Z,2.45
2022-10-25T17:26:14.259Z,2.67
2022-10-25T17:28:43.958Z,1.55
2022-10-25T17:31:13.687Z,1.98
2022-10-25T17:33:42.250Z,1.88
2022-10-25T17:36:18.310Z,2.60
2022-10-25T17:38:44.926Z,1.50
2022-10-25T17:41:13.001Z,1.08
2022-10-25T17:43:41.248Z,2.72
2022-10-25T17:46:10.707Z,2.80
2022-10-25T17:48:37.522Z,2.92
2022-10-25T17:51:08.417Z,3.42
2022-10-25T17:53:35.455Z,2.40
2022-10-25T17:56:19.140Z,2.70
2022-10-25T17:58:47.521Z,2.60
2022-10-25T18:01:17.207Z,2.70
2022-10-25T18:03:44.118Z,4.03
2022-10-25T18:06:13.187Z,3.67
2022-10-25T18:08:40.203Z,3.38
2022-10-25T18:11:15.625Z,3.03
2022-10-25T18:13:42.422Z,2.92
2022-10-25T18:16:11.187Z,3.03
2022-10-25T18:18:38.861Z,3.83
2022-10-25T18:21:08.336Z,3.00
2022-10-25T18:23:35.509Z,1.58
2022-10-25T18:26:03.109Z,4.30
2022-10-25T18:28:31.824Z,2.28
2022-10-25T18:31:09.607Z,1.75
2022-10-25T18:33:38.465Z,2.50
2022-10-25T18:36:15.351Z,4.63
2022-10-25T18:38:42.301Z,2.33
2022-10-25T18:41:12.839Z,2.08
2022-10-25T18:43:39.564Z,2.92
2022-10-25T18:46:06.252Z,5.93
2022-10-25T18:48:32.890Z,2.70
2022-10-25T18:51:04.865Z,2.33
2022-10-25T18:53:32.037Z,2.47
2022-10-25T18:55:58.804Z,2.65
2022-10-25T18:58:25.514Z,3.80
2022-10-25T19:00:52.565Z,3.67
2022-10-25T19:03:19.313Z,2.97
2022-10-25T19:05:46.030Z,3.78
2022-10-25T19:08:12.995Z,4.85
2022-10-25T19:10:40.816Z,3.45
2022-10-25T19:13:09.421Z,3.83
2022-10-25T19:15:36.201Z,2.95
2022-10-25T19:18:02.836Z,2.72
2022-10-25T19:20:29.439Z,2.67
2022-10-25T19:22:58.721Z,4.00
2022-10-25T19:25:29.663Z,3.25
2022-10-25T19:27:56.905Z,4.57
2022-10-25T19:30:24.343Z,2.63
2022-10-25T19:32:51.004Z,3.50
2022-10-25T19:35:18.285Z,2.97
2022-10-25T19:37:45.441Z,2.85
2022-10-25T19:40:12.793Z,3.15
2022-10-25T19:42:39.602Z,4.97
2022-10-25T19:45:06.673Z,3.45
2022-10-25T19:47:35.159Z,2.88
2022-10-25T19:50:03.422Z,2.83
2022-10-25T19:52:29.948Z,2.33
2022-10-25T19:54:56.638Z,3.63
2022-10-25T19:57:23.383Z,2.90
2022-10-25T19:59:50.319Z,2.00
2022-10-25T20:02:17.280Z,2.60
2022-10-25T20:04:44.093Z,2.33
2022-10-25T20:07:10.923Z,3.33
2022-10-25T20:09:37.671Z,2.83
2022-10-25T20:12:04.584Z,1.85
2022-10-25T20:14:33.382Z,3.17
2022-10-25T20:17:00.159Z,3.50
2022-10-25T20:19:26.878Z,4.05
2022-10-25T20:21:53.624Z,2.55
2022-10-25T20:24:20.133Z,2.85
2022-10-25T20:26:49.722Z,3.13
2022-10-25T20:29:21.392Z,3.30
2022-10-25T20:31:49.554Z,3.65
2022-10-25T20:34:17.016Z,3.42
2022-10-25T20:36:43.604Z,2.75
2022-10-25T20:39:11.739Z,2.17
2022-10-25T20:41:39.427Z,2.88
2022-10-25T20:44:07.289Z,2.45
2022-10-25T20:46:35.347Z,4.20
2022-10-25T20:49:03.456Z,1.92
2022-10-25T20:51:30.429Z,3.93
2022-10-25T20:53:57.304Z,2.58
2022-10-25T20:56:24.550Z,2.42
2022-10-25T20:58:51.133Z,2.47
2022-10-25T21:01:18.368Z,3.10
2022-10-25T21:03:45.093Z,2.55
2022-10-25T21:06:12.746Z,2.78
2022-10-25T21:08:40.045Z,2.88
2022-10-25T21:11:09.317Z,3.03
2022-10-25T21:13:37.333Z,2.47
2022-10-25T21:16:07.377Z,3.35
2022-10-25T21:18:34.305Z,2.67
2022-10-25T21:21:03.161Z,3.10
2022-10-25T21:23:31.084Z,3.03
2022-10-25T21:26:02.002Z,2.85
2022-10-25T21:28:33.206Z,2.70
2022-10-25T21:31:01.169Z,3.05
2022-10-25T21:33:28.112Z,1.92
2022-10-25T21:35:54.941Z,2.30
2022-10-25T21:38:21.668Z,3.03
2022-10-25T21:40:48.167Z,2.00
2022-10-25T21:43:14.795Z,3.35
2022-10-25T21:45:42.095Z,2.13
2022-10-25T21:48:08.724Z,3.17
2022-10-25T21:50:35.595Z,6.00
2022-10-25T21:53:02.181Z,2.38
2022-10-25T21:55:28.920Z,1.98
2022-10-25T21:57:57.179Z,8.57
2022-10-25T22:00:24.172Z,2.83
2022-10-25T22:03:09.224Z,3.78
2022-10-25T22:05:41.886Z,4.50
2022-10-25T22:08:08.672Z,2.72
2022-10-25T22:10:35.198Z,2.80
2022-10-25T22:13:01.855Z,2.85
2022-10-25T22:15:28.539Z,3.42
2022-10-25T22:17:55.105Z,3.17
2022-10-25T22:20:21.809Z,2.60
2022-10-25T22:22:48.708Z,3.00
2022-10-25T22:25:15.726Z,3.47
2022-10-25T22:30:14.160Z,2.53
2022-10-25T22:32:40.786Z,2.65
2022-10-25T22:35:07.727Z,2.47
2022-10-25T22:37:34.391Z,2.65
2022-10-25T22:40:01.209Z,2.60
2022-10-25T22:42:28.110Z,3.40
2022-10-25T22:44:54.931Z,2.40
2022-10-25T22:47:21.717Z,2.80
2022-10-25T22:49:48.203Z,3.92
2022-10-25T22:52:14.809Z,3.80
2022-10-25T22:54:41.491Z,3.42
2022-10-25T22:57:07.994Z,6.00
2022-10-25T22:59:34.718Z,2.15
2022-10-25T23:02:01.754Z,2.17
2022-10-25T23:04:28.405Z,3.58
2022-10-25T23:06:55.078Z,3.28
2022-10-25T23:09:21.649Z,4.20
2022-10-25T23:11:49.991Z,2.58
2022-10-25T23:14:17.583Z,2.03
2022-10-25T23:16:45.270Z,3.10
2022-10-25T23:19:11.953Z,1.85
2022-10-25T23:21:38.581Z,2.70
2022-10-25T23:24:05.601Z,3.33
2022-10-25T23:26:36.466Z,2.40
2022-10-25T23:29:04.206Z,3.05
2022-10-25T23:31:31.161Z,2.13
2022-10-25T23:33:59.735Z,2.15
2022-10-25T23:36:29.503Z,4.13
2022-10-25T23:38:57.752Z,2.25
2022-10-25T23:41:24.736Z,3.22
2022-10-25T23:43:51.759Z,2.05
2022-10-25T23:46:18.919Z,2.97
2022-10-25T23:48:45.613Z,2.70
2022-10-25T23:51:14.983Z,2.75
2022-10-25T23:56:10.248Z,2.97
2022-10-25T23:58:37.916Z,2.03
